sensor_id;sensor_type;location;lat;lon;timestamp;temperature;humidity
23411;DHT22;11878;51.774;7.220;2023-05-06T00:02:47;10.30;99.90
23411;DHT22;11878;51.774;7.220;2023-05-06T00:05:49;10.30;99.90
23411;DHT22;11878;51.774;7.220;2023-05-06T00:08:51;10.30;99.90
23411;DHT22;11878;51.774;7.220;2023-05-06T00:11:53;10.30;99.90
23411;DHT22;11878;51.774;7.220;2023-05-06T00:14:54;10.20;99.90
23411;DHT22;11878;51.774;7.220;2023-05-06T00:17:56;10.30;99.90
23411;DHT22;11878;51.774;7.220;2023-05-06T00:20:58;10.20;99.90
23411;DHT22;11878;51.774;7.220;2023-05-06T00:24:00;10.20;99.90
23411;DHT22;11878;51.774;7.220;2023-05-06T00:27:01;10.10;99.90
23411;DHT22;11878;51.774;7.220;2023-05-06T00:30:04;10.20;99.90
23411;DHT22;11878;51.774;7.220;2023-05-06T00:33:07;10.20;99.90
23411;DHT22;11878;51.774;7.220;2023-05-06T00:36:09;10.00;99.90
23411;DHT22;11878;51.774;7.220;2023-05-06T00:39:10;10.00;99.90
23411;DHT22;11878;51.774;7.220;2023-05-06T00:42:12;10.00;99.90
23411;DHT22;11878;51.774;7.220;2023-05-06T00:45:14;10.00;99.90
23411;DHT22;11878;51.774;7.220;2023-05-06T00:48:16;10.00;99.90
23411;DHT22;11878;51.774;7.220;2023-05-06T00:51:19;10.00;99.90
23411;DHT22;11878;51.774;7.220;2023-05-06T00:54:23;10.00;99.90
23411;DHT22;11878;51.774;7.220;2023-05-06T00:57:25;10.00;99.90
23411;DHT22;11878;51.774;7.220;2023-05-06T01:00:27;9.90;99.90
23411;DHT22;11878;51.774;7.220;2023-05-06T01:03:29;9.90;99.90
23411;DHT22;11878;51.774;7.220;2023-05-06T01:13:41;9.90;99.90
23411;DHT22;11878;51.774;7.220;2023-05-06T01:16:45;9.90;99.90
23411;DHT22;11878;51.774;7.220;2023-05-06T01:19:50;9.90;99.90
23411;DHT22;11878;51.774;7.220;2023-05-06T01:22:54;9.90;99.90
23411;DHT22;11878;51.774;7.220;2023-05-06T01:25:57;9.90;99.90
23411;DHT22;11878;51.774;7.220;2023-05-06T01:28:59;9.90;99.90
23411;DHT22;11878;51.774;7.220;2023-05-06T01:35:57;9.90;99.90
23411;DHT22;11878;51.774;7.220;2023-05-06T01:39:15;9.90;99.90
23411;DHT22;11878;51.774;7.220;2023-05-06T01:42:20;9.80;99.90
23411;DHT22;11878;51.774;7.220;2023-05-06T01:45:26;9.90;99.90
23411;DHT22;11878;51.774;7.220;2023-05-06T01:48:31;9.80;99.90
23411;DHT22;11878;51.774;7.220;2023-05-06T01:51:34;9.80;99.90
23411;DHT22;11878;51.774;7.220;2023-05-06T01:54:35;9.80;99.90
23411;DHT22;11878;51.774;7.220;2023-05-06T01:57:37;9.80;99.90
23411;DHT22;11878;51.774;7.220;2023-05-06T02:00:39;9.80;99.90
23411;DHT22;11878;51.774;7.220;2023-05-06T02:03:41;9.80;99.90
23411;DHT22;11878;51.774;7.220;2023-05-06T02:06:43;9.80;99.90
23411;DHT22;11878;51.774;7.220;2023-05-06T02:09:47;9.80;99.90
23411;DHT22;11878;51.774;7.220;2023-05-06T02:12:49;9.80;99.90
23411;DHT22;11878;51.774;7.220;2023-05-06T02:15:52;9.70;99.90
23411;DHT22;11878;51.774;7.220;2023-05-06T02:18:56;9.70;99.90
23411;DHT22;11878;51.774;7.220;2023-05-06T02:21:57;9.60;99.90
23411;DHT22;11878;51.774;7.220;2023-05-06T02:24:59;9.50;99.90
23411;DHT22;11878;51.774;7.220;2023-05-06T02:28:01;9.40;99.90
23411;DHT22;11878;51.774;7.220;2023-05-06T02:31:03;9.30;99.90
23411;DHT22;11878;51.774;7.220;2023-05-06T02:34:05;9.20;99.90
23411;DHT22;11878;51.774;7.220;2023-05-06T02:37:07;9.20;99.90
23411;DHT22;11878;51.774;7.220;2023-05-06T02:40:09;9.10;99.90
23411;DHT22;11878;51.774;7.220;2023-05-06T02:43:11;9.10;99.90
23411;DHT22;11878;51.774;7.220;2023-05-06T02:46:13;9.10;99.90
23411;DHT22;11878;51.774;7.220;2023-05-06T02:49:14;9.10;99.90
23411;DHT22;11878;51.774;7.220;2023-05-06T02:52:16;9.00;99.90
23411;DHT22;11878;51.774;7.220;2023-05-06T02:55:18;9.10;99.90
23411;DHT22;11878;51.774;7.220;2023-05-06T02:58:20;9.00;99.90
23411;DHT22;11878;51.774;7.220;2023-05-06T03:01:22;9.10;99.90
23411;DHT22;11878;51.774;7.220;2023-05-06T03:04:23;9.10;99.90
23411;DHT22;11878;51.774;7.220;2023-05-06T03:07:25;9.00;99.90
23411;DHT22;11878;51.774;7.220;2023-05-06T03:10:27;9.10;99.90
23411;DHT22;11878;51.774;7.220;2023-05-06T03:13:30;9.10;99.90
23411;DHT22;11878;51.774;7.220;2023-05-06T03:16:32;9.10;99.90
23411;DHT22;11878;51.774;7.220;2023-05-06T03:19:35;9.10;99.90
23411;DHT22;11878;51.774;7.220;2023-05-06T03:22:39;9.00;99.90
23411;DHT22;11878;51.774;7.220;2023-05-06T03:25:43;9.00;99.90
23411;DHT22;11878;51.774;7.220;2023-05-06T03:28:45;9.00;99.90
23411;DHT22;11878;51.774;7.220;2023-05-06T03:31:49;9.00;99.90
23411;DHT22;11878;51.774;7.220;2023-05-06T03:34:53;9.00;99.90
23411;DHT22;11878;51.774;7.220;2023-05-06T03:37:56;9.00;99.90
23411;DHT22;11878;51.774;7.220;2023-05-06T03:41:01;9.00;99.90
23411;DHT22;11878;51.774;7.220;2023-05-06T03:44:05;9.10;99.90
23411;DHT22;11878;51.774;7.220;2023-05-06T03:47:07;9.10;99.90
23411;DHT22;11878;51.774;7.220;2023-05-06T03:50:10;9.00;99.90
23411;DHT22;11878;51.774;7.220;2023-05-06T03:53:14;9.10;99.90
23411;DHT22;11878;51.774;7.220;2023-05-06T03:56:18;9.10;99.90
23411;DHT22;11878;51.774;7.220;2023-05-06T03:59:24;9.10;99.90
23411;DHT22;11878;51.774;7.220;2023-05-06T04:02:28;9.10;99.90
23411;DHT22;11878;51.774;7.220;2023-05-06T04:05:31;9.00;99.90
23411;DHT22;11878;51.774;7.220;2023-05-06T04:08:33;9.00;99.90
23411;DHT22;11878;51.774;7.220;2023-05-06T04:11:35;8.90;99.90
23411;DHT22;11878;51.774;7.220;2023-05-06T04:14:39;8.90;99.90
23411;DHT22;11878;51.774;7.220;2023-05-06T04:17:41;9.00;99.90
23411;DHT22;11878;51.774;7.220;2023-05-06T04:20:46;9.10;99.90
23411;DHT22;11878;51.774;7.220;2023-05-06T04:23:48;9.20;99.90
23411;DHT22;11878;51.774;7.220;2023-05-06T04:26:55;9.20;99.90
23411;DHT22;11878;51.774;7.220;2023-05-06T04:29:57;9.40;99.90
23411;DHT22;11878;51.774;7.220;2023-05-06T04:33:01;9.50;99.90
23411;DHT22;11878;51.774;7.220;2023-05-06T04:36:05;9.40;99.90
23411;DHT22;11878;51.774;7.220;2023-05-06T04:39:10;9.40;99.90
23411;DHT22;11878;51.774;7.220;2023-05-06T04:42:14;9.40;99.90
23411;DHT22;11878;51.774;7.220;2023-05-06T04:45:25;9.40;99.90
23411;DHT22;11878;51.774;7.220;2023-05-06T04:48:28;9.50;99.90
23411;DHT22;11878;51.774;7.220;2023-05-06T04:51:32;9.50;99.90
23411;DHT22;11878;51.774;7.220;2023-05-06T04:54:35;9.60;99.90
23411;DHT22;11878;51.774;7.220;2023-05-06T04:57:37;9.60;99.90
23411;DHT22;11878;51.774;7.220;2023-05-06T05:00:40;9.70;99.90
23411;DHT22;11878;51.774;7.220;2023-05-06T05:03:42;9.70;99.90
23411;DHT22;11878;51.774;7.220;2023-05-06T05:06:44;9.70;99.90
23411;DHT22;11878;51.774;7.220;2023-05-06T05:09:46;9.80;99.90
23411;DHT22;11878;51.774;7.220;2023-05-06T05:12:48;9.80;99.90
23411;DHT22;11878;51.774;7.220;2023-05-06T05:15:53;9.80;99.90
23411;DHT22;11878;51.774;7.220;2023-05-06T05:18:57;9.90;99.90
23411;DHT22;11878;51.774;7.220;2023-05-06T05:22:02;9.80;99.90
23411;DHT22;11878;51.774;7.220;2023-05-06T05:25:06;9.80;99.90
23411;DHT22;11878;51.774;7.220;2023-05-06T05:28:09;9.80;99.90
23411;DHT22;11878;51.774;7.220;2023-05-06T05:31:12;9.80;99.90
23411;DHT22;11878;51.774;7.220;2023-05-06T05:34:15;9.90;99.90
23411;DHT22;11878;51.774;7.220;2023-05-06T05:37:18;9.90;99.90
23411;DHT22;11878;51.774;7.220;2023-05-06T05:40:20;9.90;99.90
23411;DHT22;11878;51.774;7.220;2023-05-06T05:43:25;9.90;99.90
23411;DHT22;11878;51.774;7.220;2023-05-06T05:46:28;10.00;99.90
23411;DHT22;11878;51.774;7.220;2023-05-06T05:49:31;10.10;99.90
23411;DHT22;11878;51.774;7.220;2023-05-06T05:52:33;10.10;99.90
23411;DHT22;11878;51.774;7.220;2023-05-06T05:55:34;10.20;99.90
23411;DHT22;11878;51.774;7.220;2023-05-06T05:58:36;10.20;99.90
23411;DHT22;11878;51.774;7.220;2023-05-06T06:01:38;10.40;99.90
23411;DHT22;11878;51.774;7.220;2023-05-06T06:04:42;10.40;99.90
23411;DHT22;11878;51.774;7.220;2023-05-06T06:07:43;10.50;99.90
23411;DHT22;11878;51.774;7.220;2023-05-06T06:10:47;10.50;99.90
23411;DHT22;11878;51.774;7.220;2023-05-06T06:13:53;10.60;99.90
23411;DHT22;11878;51.774;7.220;2023-05-06T06:16:56;10.70;99.90
23411;DHT22;11878;51.774;7.220;2023-05-06T06:19:59;10.90;99.90
23411;DHT22;11878;51.774;7.220;2023-05-06T06:23:01;10.80;99.90
23411;DHT22;11878;51.774;7.220;2023-05-06T06:26:04;11.00;99.90
23411;DHT22;11878;51.774;7.220;2023-05-06T06:29:07;11.20;99.90
23411;DHT22;11878;51.774;7.220;2023-05-06T06:32:08;11.40;99.90
23411;DHT22;11878;51.774;7.220;2023-05-06T06:35:10;11.50;99.90
23411;DHT22;11878;51.774;7.220;2023-05-06T06:38:12;11.50;99.90
23411;DHT22;11878;51.774;7.220;2023-05-06T06:41:14;11.60;99.90
23411;DHT22;11878;51.774;7.220;2023-05-06T06:44:16;11.80;99.90
23411;DHT22;11878;51.774;7.220;2023-05-06T06:47:18;11.70;99.90
23411;DHT22;11878;51.774;7.220;2023-05-06T06:50:19;11.90;99.90
23411;DHT22;11878;51.774;7.220;2023-05-06T06:53:22;11.90;99.90
23411;DHT22;11878;51.774;7.220;2023-05-06T06:56:24;12.20;99.90
23411;DHT22;11878;51.774;7.220;2023-05-06T06:59:26;12.30;99.90
23411;DHT22;11878;51.774;7.220;2023-05-06T07:02:28;12.30;99.90
23411;DHT22;11878;51.774;7.220;2023-05-06T07:05:30;12.50;99.90
23411;DHT22;11878;51.774;7.220;2023-05-06T07:08:31;12.60;99.90
23411;DHT22;11878;51.774;7.220;2023-05-06T07:11:33;12.90;99.90
23411;DHT22;11878;51.774;7.220;2023-05-06T07:14:35;12.70;99.90
23411;DHT22;11878;51.774;7.220;2023-05-06T07:17:37;13.00;99.90
23411;DHT22;11878;51.774;7.220;2023-05-06T07:20:38;13.00;99.90
23411;DHT22;11878;51.774;7.220;2023-05-06T07:23:40;13.00;99.90
23411;DHT22;11878;51.774;7.220;2023-05-06T07:26:42;13.10;99.90
23411;DHT22;11878;51.774;7.220;2023-05-06T07:29:44;13.30;99.90
23411;DHT22;11878;51.774;7.220;2023-05-06T07:32:46;13.30;99.90
23411;DHT22;11878;51.774;7.220;2023-05-06T07:35:48;13.40;99.90
23411;DHT22;11878;51.774;7.220;2023-05-06T07:38:50;13.40;99.90
23411;DHT22;11878;51.774;7.220;2023-05-06T07:41:52;13.60;99.90
23411;DHT22;11878;51.774;7.220;2023-05-06T07:44:54;13.80;99.90
23411;DHT22;11878;51.774;7.220;2023-05-06T07:47:56;14.00;99.90
23411;DHT22;11878;51.774;7.220;2023-05-06T07:50:58;14.10;99.90
23411;DHT22;11878;51.774;7.220;2023-05-06T07:54:00;14.20;99.90
23411;DHT22;11878;51.774;7.220;2023-05-06T07:57:02;14.20;99.90
23411;DHT22;11878;51.774;7.220;2023-05-06T08:00:04;14.40;99.90
23411;DHT22;11878;51.774;7.220;2023-05-06T08:03:13;14.60;99.90
23411;DHT22;11878;51.774;7.220;2023-05-06T08:06:15;15.00;99.90
23411;DHT22;11878;51.774;7.220;2023-05-06T08:09:17;14.80;99.90
23411;DHT22;11878;51.774;7.220;2023-05-06T08:12:23;14.90;99.90
23411;DHT22;11878;51.774;7.220;2023-05-06T08:15:25;15.00;99.90
23411;DHT22;11878;51.774;7.220;2023-05-06T08:18:27;15.10;99.90
23411;DHT22;11878;51.774;7.220;2023-05-06T08:21:29;15.20;99.90
23411;DHT22;11878;51.774;7.220;2023-05-06T08:24:31;15.30;99.90
23411;DHT22;11878;51.774;7.220;2023-05-06T08:27:33;15.40;99.90
23411;DHT22;11878;51.774;7.220;2023-05-06T08:30:34;15.50;99.90
23411;DHT22;11878;51.774;7.220;2023-05-06T08:33:37;15.70;99.90
23411;DHT22;11878;51.774;7.220;2023-05-06T08:36:38;15.70;99.90
23411;DHT22;11878;51.774;7.220;2023-05-06T08:39:40;15.50;99.90
23411;DHT22;11878;51.774;7.220;2023-05-06T08:42:44;15.80;99.90
23411;DHT22;11878;51.774;7.220;2023-05-06T08:45:48;15.90;99.90
23411;DHT22;11878;51.774;7.220;2023-05-06T08:48:50;16.20;99.90
23411;DHT22;11878;51.774;7.220;2023-05-06T08:51:51;16.40;99.90
23411;DHT22;11878;51.774;7.220;2023-05-06T08:54:54;16.10;99.90
23411;DHT22;11878;51.774;7.220;2023-05-06T08:57:59;16.40;99.90
23411;DHT22;11878;51.774;7.220;2023-05-06T09:01:02;16.70;99.90
23411;DHT22;11878;51.774;7.220;2023-05-06T09:04:05;16.40;99.90
23411;DHT22;11878;51.774;7.220;2023-05-06T09:07:07;16.60;99.90
23411;DHT22;11878;51.774;7.220;2023-05-06T09:10:13;17.10;99.90
23411;DHT22;11878;51.774;7.220;2023-05-06T09:13:16;17.40;99.90
23411;DHT22;11878;51.774;7.220;2023-05-06T09:16:29;17.30;99.90
23411;DHT22;11878;51.774;7.220;2023-05-06T09:19:31;17.60;99.90
23411;DHT22;11878;51.774;7.220;2023-05-06T09:22:32;17.30;99.90
23411;DHT22;11878;51.774;7.220;2023-05-06T09:25:35;17.30;99.90
23411;DHT22;11878;51.774;7.220;2023-05-06T09:28:37;17.40;99.90
23411;DHT22;11878;51.774;7.220;2023-05-06T09:31:41;17.10;99.90
23411;DHT22;11878;51.774;7.220;2023-05-06T09:34:43;17.50;99.90
23411;DHT22;11878;51.774;7.220;2023-05-06T09:37:46;17.90;99.90
23411;DHT22;11878;51.774;7.220;2023-05-06T09:40:48;17.60;99.90
23411;DHT22;11878;51.774;7.220;2023-05-06T09:43:54;17.30;99.90
23411;DHT22;11878;51.774;7.220;2023-05-06T09:46:56;17.70;99.90
23411;DHT22;11878;51.774;7.220;2023-05-06T09:50:00;18.50;99.90
23411;DHT22;11878;51.774;7.220;2023-05-06T09:53:03;18.30;99.90
23411;DHT22;11878;51.774;7.220;2023-05-06T09:56:07;18.50;99.90
23411;DHT22;11878;51.774;7.220;2023-05-06T09:59:10;18.90;99.90
23411;DHT22;11878;51.774;7.220;2023-05-06T10:02:12;19.30;99.90
23411;DHT22;11878;51.774;7.220;2023-05-06T10:05:15;19.40;99.90
23411;DHT22;11878;51.774;7.220;2023-05-06T10:08:18;19.80;99.90
23411;DHT22;11878;51.774;7.220;2023-05-06T10:11:20;20.00;99.90
23411;DHT22;11878;51.774;7.220;2023-05-06T10:14:24;20.50;99.90
23411;DHT22;11878;51.774;7.220;2023-05-06T10:17:26;19.60;99.90
23411;DHT22;11878;51.774;7.220;2023-05-06T10:20:30;19.70;99.90
23411;DHT22;11878;51.774;7.220;2023-05-06T10:23:43;20.10;99.90
23411;DHT22;11878;51.774;7.220;2023-05-06T10:26:50;20.70;99.90
23411;DHT22;11878;51.774;7.220;2023-05-06T10:29:57;21.10;99.90
23411;DHT22;11878;51.774;7.220;2023-05-06T10:33:10;21.30;99.90
23411;DHT22;11878;51.774;7.220;2023-05-06T10:36:22;22.00;99.90
23411;DHT22;11878;51.774;7.220;2023-05-06T10:39:25;22.10;99.90
23411;DHT22;11878;51.774;7.220;2023-05-06T10:42:31;21.80;99.90
23411;DHT22;11878;51.774;7.220;2023-05-06T10:46:00;20.10;99.90
23411;DHT22;11878;51.774;7.220;2023-05-06T10:52:11;21.20;99.90
23411;DHT22;11878;51.774;7.220;2023-05-06T10:58:35;20.30;99.90
23411;DHT22;11878;51.774;7.220;2023-05-06T11:01:41;20.00;99.90
23411;DHT22;11878;51.774;7.220;2023-05-06T11:04:49;21.00;99.90
23411;DHT22;11878;51.774;7.220;2023-05-06T11:07:52;21.00;99.90
23411;DHT22;11878;51.774;7.220;2023-05-06T11:10:54;20.20;99.90
23411;DHT22;11878;51.774;7.220;2023-05-06T11:14:13;19.70;99.90
23411;DHT22;11878;51.774;7.220;2023-05-06T11:17:30;19.40;99.90
23411;DHT22;11878;51.774;7.220;2023-05-06T11:20:32;19.30;99.90
23411;DHT22;11878;51.774;7.220;2023-05-06T11:26:42;18.90;99.90
23411;DHT22;11878;51.774;7.220;2023-05-06T11:29:44;18.80;99.90
23411;DHT22;11878;51.774;7.220;2023-05-06T11:32:46;18.70;99.90
23411;DHT22;11878;51.774;7.220;2023-05-06T11:35:48;19.40;99.90
23411;DHT22;11878;51.774;7.220;2023-05-06T11:38:50;19.60;99.90
23411;DHT22;11878;51.774;7.220;2023-05-06T11:41:53;19.80;99.90
23411;DHT22;11878;51.774;7.220;2023-05-06T11:44:58;19.60;99.90
23411;DHT22;11878;51.774;7.220;2023-05-06T11:48:01;19.50;99.90
23411;DHT22;11878;51.774;7.220;2023-05-06T11:51:02;19.50;99.90
23411;DHT22;11878;51.774;7.220;2023-05-06T11:54:08;19.80;99.90
23411;DHT22;11878;51.774;7.220;2023-05-06T11:57:11;19.70;99.90
23411;DHT22;11878;51.774;7.220;2023-05-06T12:00:14;19.70;99.90
23411;DHT22;11878;51.774;7.220;2023-05-06T12:03:16;19.30;99.90
23411;DHT22;11878;51.774;7.220;2023-05-06T12:06:18;19.10;99.90
23411;DHT22;11878;51.774;7.220;2023-05-06T12:09:32;19.10;99.90
23411;DHT22;11878;51.774;7.220;2023-05-06T12:12:35;19.30;99.90
23411;DHT22;11878;51.774;7.220;2023-05-06T12:15:37;19.60;99.90
23411;DHT22;11878;51.774;7.220;2023-05-06T12:18:38;19.60;99.90
23411;DHT22;11878;51.774;7.220;2023-05-06T12:21:40;19.90;99.90
23411;DHT22;11878;51.774;7.220;2023-05-06T12:24:42;20.10;99.90
23411;DHT22;11878;51.774;7.220;2023-05-06T12:27:44;19.80;99.90
23411;DHT22;11878;51.774;7.220;2023-05-06T12:30:46;19.80;99.90
23411;DHT22;11878;51.774;7.220;2023-05-06T12:33:48;20.30;99.90
23411;DHT22;11878;51.774;7.220;2023-05-06T12:36:51;20.80;99.90
23411;DHT22;11878;51.774;7.220;2023-05-06T12:39:52;21.00;99.90
23411;DHT22;11878;51.774;7.220;2023-05-06T12:42:59;20.90;99.90
23411;DHT22;11878;51.774;7.220;2023-05-06T12:46:02;20.80;99.90
23411;DHT22;11878;51.774;7.220;2023-05-06T12:49:05;20.80;99.90
23411;DHT22;11878;51.774;7.220;2023-05-06T12:52:08;20.70;99.90
23411;DHT22;11878;51.774;7.220;2023-05-06T12:55:10;20.70;99.00
23411;DHT22;11878;51.774;7.220;2023-05-06T12:58:18;20.90;99.90
23411;DHT22;11878;51.774;7.220;2023-05-06T13:01:20;20.90;99.90
23411;DHT22;11878;51.774;7.220;2023-05-06T13:04:22;21.00;99.90
23411;DHT22;11878;51.774;7.220;2023-05-06T13:07:24;21.40;99.90
23411;DHT22;11878;51.774;7.220;2023-05-06T13:10:26;21.70;99.90
23411;DHT22;11878;51.774;7.220;2023-05-06T13:13:29;21.60;99.30
23411;DHT22;11878;51.774;7.220;2023-05-06T13:16:31;21.60;97.40
23411;DHT22;11878;51.774;7.220;2023-05-06T13:19:33;21.90;97.30
23411;DHT22;11878;51.774;7.220;2023-05-06T13:22:35;21.80;98.00
23411;DHT22;11878;51.774;7.220;2023-05-06T13:25:54;21.70;96.50
23411;DHT22;11878;51.774;7.220;2023-05-06T13:29:06;21.20;97.80
23411;DHT22;11878;51.774;7.220;2023-05-06T13:32:07;21.50;93.80
23411;DHT22;11878;51.774;7.220;2023-05-06T13:35:09;21.70;99.00
23411;DHT22;11878;51.774;7.220;2023-05-06T13:38:12;21.50;94.40
23411;DHT22;11878;51.774;7.220;2023-05-06T13:41:13;21.10;92.70
23411;DHT22;11878;51.774;7.220;2023-05-06T13:44:19;21.30;95.30
23411;DHT22;11878;51.774;7.220;2023-05-06T13:47:20;21.50;97.80
23411;DHT22;11878;51.774;7.220;2023-05-06T13:50:23;21.70;94.80
23411;DHT22;11878;51.774;7.220;2023-05-06T13:53:25;21.50;94.30
23411;DHT22;11878;51.774;7.220;2023-05-06T13:56:26;21.50;96.80
23411;DHT22;11878;51.774;7.220;2023-05-06T13:59:30;21.50;96.60
23411;DHT22;11878;51.774;7.220;2023-05-06T14:02:32;21.50;96.80
23411;DHT22;11878;51.774;7.220;2023-05-06T14:05:34;21.20;94.40
23411;DHT22;11878;51.774;7.220;2023-05-06T14:08:36;21.20;94.90
23411;DHT22;11878;51.774;7.220;2023-05-06T14:11:38;21.20;93.60
23411;DHT22;11878;51.774;7.220;2023-05-06T14:14:39;21.20;93.10
23411;DHT22;11878;51.774;7.220;2023-05-06T14:17:41;21.30;94.90
23411;DHT22;11878;51.774;7.220;2023-05-06T14:20:43;21.10;93.90
23411;DHT22;11878;51.774;7.220;2023-05-06T14:23:45;21.20;96.80
23411;DHT22;11878;51.774;7.220;2023-05-06T14:26:47;21.10;94.80
23411;DHT22;11878;51.774;7.220;2023-05-06T14:29:49;21.10;95.10
23411;DHT22;11878;51.774;7.220;2023-05-06T14:32:50;20.70;94.90
23411;DHT22;11878;51.774;7.220;2023-05-06T14:35:52;20.80;97.60
23411;DHT22;11878;51.774;7.220;2023-05-06T14:38:54;20.90;95.60
23411;DHT22;11878;51.774;7.220;2023-05-06T14:41:55;21.00;96.70
23411;DHT22;11878;51.774;7.220;2023-05-06T14:44:59;21.00;94.00
23411;DHT22;11878;51.774;7.220;2023-05-06T14:48:00;20.80;96.70
23411;DHT22;11878;51.774;7.220;2023-05-06T14:51:02;21.00;96.80
23411;DHT22;11878;51.774;7.220;2023-05-06T14:54:04;21.10;97.80
23411;DHT22;11878;51.774;7.220;2023-05-06T14:57:07;21.20;96.90
23411;DHT22;11878;51.774;7.220;2023-05-06T15:00:09;21.20;95.80
23411;DHT22;11878;51.774;7.220;2023-05-06T15:03:13;21.00;96.00
23411;DHT22;11878;51.774;7.220;2023-05-06T15:06:14;21.00;95.00
23411;DHT22;11878;51.774;7.220;2023-05-06T15:09:16;20.80;95.60
23411;DHT22;11878;51.774;7.220;2023-05-06T15:12:19;20.60;95.50
23411;DHT22;11878;51.774;7.220;2023-05-06T15:15:21;20.70;96.10
23411;DHT22;11878;51.774;7.220;2023-05-06T15:18:23;20.60;97.00
23411;DHT22;11878;51.774;7.220;2023-05-06T15:21:25;20.60;98.60
23411;DHT22;11878;51.774;7.220;2023-05-06T15:24:28;20.60;96.80
23411;DHT22;11878;51.774;7.220;2023-05-06T15:27:30;20.70;96.20
23411;DHT22;11878;51.774;7.220;2023-05-06T15:30:32;20.60;97.00
23411;DHT22;11878;51.774;7.220;2023-05-06T15:33:34;20.90;97.20
23411;DHT22;11878;51.774;7.220;2023-05-06T15:36:36;20.70;97.10
23411;DHT22;11878;51.774;7.220;2023-05-06T15:39:38;20.80;98.10
23411;DHT22;11878;51.774;7.220;2023-05-06T15:42:40;20.90;99.00
23411;DHT22;11878;51.774;7.220;2023-05-06T15:45:42;20.90;97.40
23411;DHT22;11878;51.774;7.220;2023-05-06T15:48:43;20.70;97.60
23411;DHT22;11878;51.774;7.220;2023-05-06T15:51:46;20.60;98.50
23411;DHT22;11878;51.774;7.220;2023-05-06T15:54:48;20.50;96.40
23411;DHT22;11878;51.774;7.220;2023-05-06T15:57:50;20.30;95.40
23411;DHT22;11878;51.774;7.220;2023-05-06T16:00:55;20.40;98.20
23411;DHT22;11878;51.774;7.220;2023-05-06T16:03:57;20.40;97.20
23411;DHT22;11878;51.774;7.220;2023-05-06T16:07:00;20.20;97.90
23411;DHT22;11878;51.774;7.220;2023-05-06T16:10:02;20.10;97.40
23411;DHT22;11878;51.774;7.220;2023-05-06T16:13:04;20.10;98.30
23411;DHT22;11878;51.774;7.220;2023-05-06T16:16:06;20.10;99.10
23411;DHT22;11878;51.774;7.220;2023-05-06T16:19:08;20.00;99.90
23411;DHT22;11878;51.774;7.220;2023-05-06T16:22:10;20.00;99.90
23411;DHT22;11878;51.774;7.220;2023-05-06T16:25:11;20.00;99.90
23411;DHT22;11878;51.774;7.220;2023-05-06T16:28:13;19.90;99.90
23411;DHT22;11878;51.774;7.220;2023-05-06T16:31:15;19.80;99.90
23411;DHT22;11878;51.774;7.220;2023-05-06T16:34:17;19.90;99.90
23411;DHT22;11878;51.774;7.220;2023-05-06T16:37:18;19.80;99.90
23411;DHT22;11878;51.774;7.220;2023-05-06T16:40:20;19.80;99.90
23411;DHT22;11878;51.774;7.220;2023-05-06T16:43:22;19.70;99.90
23411;DHT22;11878;51.774;7.220;2023-05-06T16:46:24;19.70;99.50
23411;DHT22;11878;51.774;7.220;2023-05-06T16:49:26;19.50;99.90
23411;DHT22;11878;51.774;7.220;2023-05-06T16:52:28;19.60;99.90
23411;DHT22;11878;51.774;7.220;2023-05-06T16:55:31;19.40;99.90
23411;DHT22;11878;51.774;7.220;2023-05-06T16:58:33;19.30;99.90
23411;DHT22;11878;51.774;7.220;2023-05-06T17:01:35;19.30;99.90
23411;DHT22;11878;51.774;7.220;2023-05-06T17:04:37;19.30;99.90
23411;DHT22;11878;51.774;7.220;2023-05-06T17:07:38;19.20;99.90
23411;DHT22;11878;51.774;7.220;2023-05-06T17:10:40;19.20;99.90
23411;DHT22;11878;51.774;7.220;2023-05-06T17:13:43;19.10;99.90
23411;DHT22;11878;51.774;7.220;2023-05-06T17:16:45;19.20;99.90
23411;DHT22;11878;51.774;7.220;2023-05-06T17:19:47;19.20;99.90
23411;DHT22;11878;51.774;7.220;2023-05-06T17:22:49;18.60;99.90
23411;DHT22;11878;51.774;7.220;2023-05-06T17:25:51;18.30;99.90
23411;DHT22;11878;51.774;7.220;2023-05-06T17:28:53;17.90;99.90
23411;DHT22;11878;51.774;7.220;2023-05-06T17:31:55;17.70;99.90
23411;DHT22;11878;51.774;7.220;2023-05-06T17:34:56;17.40;99.90
23411;DHT22;11878;51.774;7.220;2023-05-06T17:37:59;17.20;99.90
23411;DHT22;11878;51.774;7.220;2023-05-06T17:41:01;16.80;99.90
23411;DHT22;11878;51.774;7.220;2023-05-06T17:44:03;16.50;99.90
23411;DHT22;11878;51.774;7.220;2023-05-06T17:47:05;16.30;99.90
23411;DHT22;11878;51.774;7.220;2023-05-06T17:50:06;16.50;99.90
23411;DHT22;11878;51.774;7.220;2023-05-06T17:53:08;15.70;99.90
23411;DHT22;11878;51.774;7.220;2023-05-06T17:56:10;15.60;99.90
23411;DHT22;11878;51.774;7.220;2023-05-06T17:59:12;15.70;99.90
23411;DHT22;11878;51.774;7.220;2023-05-06T18:02:14;15.60;99.90
23411;DHT22;11878;51.774;7.220;2023-05-06T18:05:16;15.50;99.90
23411;DHT22;11878;51.774;7.220;2023-05-06T18:08:18;15.60;99.90
23411;DHT22;11878;51.774;7.220;2023-05-06T18:11:20;15.50;99.90
23411;DHT22;11878;51.774;7.220;2023-05-06T18:14:22;15.50;99.90
23411;DHT22;11878;51.774;7.220;2023-05-06T18:17:23;15.40;99.90
23411;DHT22;11878;51.774;7.220;2023-05-06T18:20:26;15.30;99.90
23411;DHT22;11878;51.774;7.220;2023-05-06T18:23:27;15.30;99.90
23411;DHT22;11878;51.774;7.220;2023-05-06T18:26:30;15.20;99.90
23411;DHT22;11878;51.774;7.220;2023-05-06T18:29:45;15.30;99.90
23411;DHT22;11878;51.774;7.220;2023-05-06T18:32:47;15.10;99.90
23411;DHT22;11878;51.774;7.220;2023-05-06T18:35:52;15.20;99.90
23411;DHT22;11878;51.774;7.220;2023-05-06T18:38:54;15.00;99.90
23411;DHT22;11878;51.774;7.220;2023-05-06T18:41:55;15.00;99.90
23411;DHT22;11878;51.774;7.220;2023-05-06T18:44:57;15.10;99.90
23411;DHT22;11878;51.774;7.220;2023-05-06T18:47:59;15.20;99.90
23411;DHT22;11878;51.774;7.220;2023-05-06T18:51:28;15.10;99.90
23411;DHT22;11878;51.774;7.220;2023-05-06T18:54:29;15.10;99.90
23411;DHT22;11878;51.774;7.220;2023-05-06T18:57:31;15.10;99.90
23411;DHT22;11878;51.774;7.220;2023-05-06T19:00:33;15.10;99.90
23411;DHT22;11878;51.774;7.220;2023-05-06T19:03:36;15.00;99.90
23411;DHT22;11878;51.774;7.220;2023-05-06T19:06:38;15.00;99.90
23411;DHT22;11878;51.774;7.220;2023-05-06T19:09:40;15.00;99.90
23411;DHT22;11878;51.774;7.220;2023-05-06T19:12:43;15.00;99.90
23411;DHT22;11878;51.774;7.220;2023-05-06T19:15:46;15.00;99.90
23411;DHT22;11878;51.774;7.220;2023-05-06T19:18:47;15.00;99.90
23411;DHT22;11878;51.774;7.220;2023-05-06T19:21:49;15.00;99.90
23411;DHT22;11878;51.774;7.220;2023-05-06T19:24:51;15.00;99.90
23411;DHT22;11878;51.774;7.220;2023-05-06T19:27:52;15.00;99.90
23411;DHT22;11878;51.774;7.220;2023-05-06T19:30:54;14.90;99.90
23411;DHT22;11878;51.774;7.220;2023-05-06T19:33:56;14.90;99.90
23411;DHT22;11878;51.774;7.220;2023-05-06T19:36:58;14.80;99.90
23411;DHT22;11878;51.774;7.220;2023-05-06T19:40:00;14.90;99.90
23411;DHT22;11878;51.774;7.220;2023-05-06T19:43:02;14.80;99.90